Groton, MA (01450)

11:30 AM EDT on March 26, 2017 (GMT -0400)
Groton Town Center | | Change Station
Active Advisory: Freezing Rain Advisory

Elev 358 ft 42.62 °N, 71.57 °W | Updated 4 seconds ago

Mostly Cloudy
Mostly Cloudy
40.6 °F
Feels Like 41 °F
N
0.0
Wind Variable Wind from North
Gusts 0.0 mph

Today
High -- | Low -- °F
--% Chance of Precip.
Yesterday
High -- | Low -- °F
Precip. -- in
Pressure 30.54 in
Visibility 10.0 miles
Clouds Scattered Clouds 8500 ft
Windchill 41 °F
Dew Point 23 °F
Humidity 50%
Rainfall 0.00 in
Snow Depth Not available.
6:38 AM 7:05 PM
Waning Crescent, 3% visible
METAR KFIT 261452Z AUTO 05006KT 10SM SCT085 03/M06 A3054 RMK AO2 SLPNO I3000 T00281061 56001
Pressure 30.54 in
Visibility 10.0 miles
Clouds Scattered Clouds 8500 ft
Windchill 41 °F
Dew Point 23 °F
Humidity 50%
Rainfall 0.00 in
Snow Depth Not available.
6:38 AM 7:05 PM
Waning Crescent, 3% visible
METAR KFIT 261452Z AUTO 05006KT 10SM SCT085 03/M06 A3054 RMK AO2 SLPNO I3000 T00281061 56001

Get Your Daily Forecast Email!

Thanks for signing up!

Be on the lookout for a verification email in your inbox.

You'll start receiving severe weather alerts in your inbox..

×

10-Day Weather Forecast

Almanac

Astronomy

Mar. 26, 2017 Rise Set
Actual Time
Civil Twilight
Nautical Twilight
Astronomical Twilight
Moon
Length of Visible Light
Length of Day
Tomorrow will be .
, % of the Moon is Illuminated

Today's Extremes

State Highs State Lows

Community

WunderPhotos

Upload Photos

1,962,540 photos uploaded!

WunderBlog® & News

Nearby

Air Quality

  Air Quality AQ Index Pollutant
Not available.

Snow Depth

Station Depth Elevation

Earthquake Activity

City Distance Mag. Time & Date
Minimum magnitude displayed is 2.5.

Earthquake Activity

City Distance Mag. Time & Date
Minimum magnitude displayed is 2.5.

Coastal Water Temperatures

Place Temperature

Stations

Nearby Weather Stations

Station Location Temp. Windchill Dew Point Humidity Wind Precip. Elev Updated Type
                   

Watches & Warnings

Freezing Rain Advisory
Issued: 9:34 AM EDT Mar. 26, 2017 – National Weather Service

... Freezing Rain Advisory from 8 PM this evening to 8 am EDT Monday...

* locations... include western and central Massachusetts,
especially the higher terrain of the Berkshires and Worcester
Hills.

* Hazard types... freezing rain.

* Accumulations... of less than one tenth of an inch of ice.

* Timing... late tonight into Monday morning.

* Impacts... untreated surfaces may become slippery, especially
those that are elevated and exposed to the elements, leading to
travel difficulties during the Monday morning commute.

Precautionary/preparedness actions...

A Freezing Rain Advisory means that periods of freezing rain or
freezing drizzle will cause travel difficulties. Be prepared for
slippery roads. Slow down and use caution while driving.



For the latest updates... please visit our webpage at
www.Weather.Gov/Boston

You can follow US on facebook at